Data for 11/28/2015

Time Sea-Level Adjusted Pressure Absolute Pressure Temperature Relative Humidity Dew Point   
(mb) (inHg) (mb) (inHg) (C) (F) (%) (C) (F)
00:05 1026 30.3 855 25.25 -15.3 4.5 81 -17.8 -0.1
00:10 1026 30.3 855 25.25 -15 5 82 -17.5 0.5
00:15 1026 30.3 855 25.25 -14.7 5.5 81 -17.3 0.9
00:20 1026 30.3 855 25.25 -14.6 5.7 79 -17.5 0.6
00:25 1026 30.3 855 25.25 -14.7 5.5 79 -17.6 0.3
00:30 1026 30.3 855 25.25 -14.7 5.6 78 -17.7 0.2
00:35 1026 30.3 855 25.25 -14.8 5.3 78 -17.8 -0
00:40 1026 30.3 855 25.25 -14.8 5.3 78 -17.8 -0.1
00:45 1026 30.3 855 25.25 -14.8 5.3 81 -17.5 0.6
00:50 1026 30.3 855 25.25 -14.8 5.4 80 -17.6 0.4
00:55 1026 30.3 855 25.25 -14.6 5.6 78 -17.7 0.2
01:00 1026 30.3 855 25.25 -14.9 5.3 79 -17.8 -0
01:05 1026 30.3 855 25.25 -14.9 5.3 78 -17.9 -0.3
01:10 1026 30.3 855 25.25 -15.3 4.5 80 -17.9 -0.3
01:15 1026 30.3 855 25.25 -15 5.1 79 -17.8 -0.1
01:20 1026 30.3 855 25.25 -15.1 4.9 81 -17.7 0.1
01:25 1026 30.3 855 25.25 -15.1 4.8 81 -17.6 0.3
01:30 1026 30.3 855 25.25 -14.8 5.4 80 -17.5 0.5
01:35 1026 30.3 855 25.25 -14.7 5.6 80 -17.4 0.6
01:40 1026 30.3 855 25.25 -14.7 5.5 80 -17.5 0.6
01:45 1026 30.3 855 25.25 -14.6 5.6 80 -17.3 0.8
01:50 1026 30.3 855 25.25 -14.4 6 79 -17.3 0.8
01:55 1026 30.3 855 25.25 -15.1 4.9 80 -17.7 0.1
02:00 1026 30.3 855 25.25 -15.5 4.1 79 -18.3 -0.9
02:05 1026 30.3 855 25.25 -15.7 3.8 81 -18.3 -0.9
02:10 1026 30.3 855 25.25 -15.4 4.4 80 -18.1 -0.6
02:15 1026 30.3 855 25.25 -15.5 4.2 79 -18.3 -0.9
02:20 1026 30.3 855 25.25 -15.9 3.5 80 -18.5 -1.4
02:25 1026 30.3 855 25.25 -16 3.2 81 -18.6 -1.4
02:30 1025 30.27 855 25.25 -15.7 3.8 80 -18.4 -1.1
02:35 1025 30.27 855 25.25 -15.4 4.3 81 -18 -0.4
02:40 1025 30.27 855 25.25 -15.1 4.7 79 -18 -0.5
02:45 1025 30.27 855 25.25 -15.1 4.9 78 -18 -0.4
02:50 1025 30.27 855 25.25 -15.1 4.8 78 -18.1 -0.5
02:55 1025 30.27 855 25.25 -15.2 4.6 79 -18.1 -0.6
03:00 1025 30.27 855 25.25 -15.5 4.1 79 -18.4 -1
03:05 1025 30.27 855 25.25 -15.9 3.4 81 -18.4 -1.1
03:10 1025 30.27 855 25.25 -15.8 3.6 82 -18.2 -0.7
03:15 1025 30.27 855 25.25 -15.6 4 81 -18 -0.5
03:20 1025 30.27 855 25.25 -15.4 4.2 81 -17.9 -0.3
03:25 1025 30.27 855 25.25 -15.4 4.3 82 -17.8 0
03:30 1025 30.27 855 25.25 -15.1 4.9 81 -17.6 0.3
03:35 1025 30.27 855 25.25 -14.9 5.2 81 -17.5 0.5
03:40 1025 30.27 855 25.25 -14.9 5.1 79 -17.8 -0.1
03:45 1025 30.27 855 25.25 -15.5 4 79 -18.4 -1.1
03:50 1025 30.27 855 25.25 -16.1 3 82 -18.6 -1.4
03:55 1025 30.27 855 25.25 -16.2 2.8 83 -18.5 -1.3
04:00 1025 30.27 855 25.25 -16 3.3 82 -18.3 -1
04:05 1025 30.27 855 25.25 -15.8 3.5 83 -18.1 -0.6
04:10 1025 30.27 854 25.22 -15.6 3.8 82 -18 -0.4
04:15 1025 30.27 855 25.25 -15.6 3.9 81 -18.2 -0.8
04:20 1025 30.27 855 25.25 -15.8 3.5 81 -18.3 -1
04:25 1025 30.27 854 25.22 -15.8 3.6 81 -18.4 -1.1
04:30 1025 30.27 854 25.22 -15.8 3.5 80 -18.5 -1.4
04:35 1025 30.27 854 25.22 -15.9 3.5 81 -18.4 -1.2
04:40 1025 30.27 854 25.22 -15.9 3.3 80 -18.6 -1.5
04:45 1025 30.27 854 25.22 -16 3.1 81 -18.6 -1.5
04:50 1025 30.27 854 25.22 -16 3.2 81 -18.6 -1.4
04:55 1025 30.27 854 25.22 -15.9 3.3 82 -18.3 -1
05:00 1025 30.27 854 25.22 -15.8 3.5 82 -18.2 -0.7
05:05 1025 30.27 854 25.22 -15.8 3.5 83 -18 -0.5
05:10 1025 30.27 854 25.22 -15.5 4.1 81 -18.1 -0.5
05:15 1025 30.27 854 25.22 -16 3.3 80 -18.6 -1.5
05:20 1025 30.27 854 25.22 -16.4 2.5 86 -18.3 -0.9
05:25 1025 30.27 854 25.22 -15.9 3.5 82 -18.2 -0.8
05:30 1025 30.27 854 25.22 -15.9 3.5 83 -18.1 -0.6
05:35 1025 30.27 854 25.22 -15.6 3.8 83 -17.9 -0.2
05:40 1025 30.27 854 25.22 -15.6 3.9 83 -17.8 -0.1
05:45 1025 30.27 854 25.22 -15.6 4 81 -18.1 -0.6
05:50 1025 30.27 854 25.22 -15.8 3.6 81 -18.3 -0.9
05:55 1025 30.27 854 25.22 -15.9 3.5 81 -18.4 -1.2
06:00 1025 30.27 854 25.22 -15.8 3.6 81 -18.4 -1
06:05 1025 30.27 854 25.22 -15.8 3.5 82 -18.2 -0.8
06:10 1025 30.27 854 25.22 -16 3.3 82 -18.3 -0.9
06:15 1025 30.27 854 25.22 -15.7 3.7 80 -18.4 -1.1
06:20 1025 30.27 854 25.22 -15.9 3.5 81 -18.4 -1.1
06:25 1025 30.27 854 25.22 -15.9 3.4 81 -18.4 -1.1
06:30 1025 30.27 854 25.22 -16 3.2 83 -18.3 -0.9
06:35 1025 30.27 854 25.22 -15.8 3.5 83 -18.1 -0.6
06:40 1025 30.27 854 25.22 -15.6 3.9 83 -17.9 -0.2
06:45 1025 30.27 854 25.22 -15.5 4.2 82 -17.8 -0.1
06:50 1025 30.27 854 25.22 -15.4 4.4 83 -17.6 0.3
06:55 1025 30.27 854 25.22 -15.2 4.6 82 -17.7 0.1
07:00 1025 30.27 854 25.22 -15.3 4.6 80 -18 -0.4
07:05 1025 30.27 854 25.22 -15.7 3.7 81 -18.3 -0.9
07:10 1025 30.27 854 25.22 -16.2 2.8 83 -18.5 -1.3
07:15 1025 30.27 854 25.22 -16.3 2.6 81 -18.9 -2
07:20 1025 30.27 854 25.22 -16.7 2 84 -18.8 -1.9
07:25 1025 30.27 854 25.22 -16.5 2.2 82 -18.9 -2
07:30 1025 30.27 854 25.22 -16.5 2.3 84 -18.6 -1.5
07:35 1025 30.27 854 25.22 -16.3 2.7 81 -18.8 -1.8
07:40 1025 30.27 854 25.22 -16.6 2.1 81 -19.1 -2.3
07:45 1025 30.27 854 25.22 -16.7 1.9 82 -19.1 -2.3
07:50 1025 30.27 854 25.22 -16.5 2.3 82 -18.9 -2.1
07:55 1025 30.27 854 25.22 -16.4 2.5 82 -18.8 -1.9
08:00 1025 30.27 854 25.22 -16.4 2.6 81 -18.9 -2.1
08:05 1025 30.27 854 25.22 -16.3 2.6 80 -19 -2.1
08:10 1025 30.27 854 25.22 -16.4 2.5 81 -19 -2.2
08:15 1025 30.27 854 25.22 -16.4 2.5 80 -19 -2.2
08:20 1025 30.27 854 25.22 -16.6 2.2 81 -19 -2.3
08:25 1025 30.27 854 25.22 -16.6 2.1 83 -18.9 -2
08:30 1025 30.27 854 25.22 -16.4 2.4 83 -18.7 -1.6
08:35 1025 30.27 854 25.22 -16.3 2.6 82 -18.8 -1.8
08:40 1025 30.27 854 25.22 -16.4 2.5 81 -19 -2.2
08:45 1025 30.27 854 25.22 -16.6 2.1 82 -18.9 -2.1
08:50 1025 30.27 854 25.22 -16.6 2.1 83 -18.8 -1.9
08:55 1025 30.27 854 25.22 -16.5 2.3 83 -18.8 -1.8
09:00 1025 30.27 854 25.22 -16.4 2.5 83 -18.6 -1.6
09:05 1025 30.27 854 25.22 -16.1 3 81 -18.7 -1.6
09:10 1025 30.27 854 25.22 -15.8 3.6 76 -19.1 -2.3
09:15 1025 30.27 854 25.22 -15.8 3.5 75 -19.2 -2.6
09:20 1025 30.27 854 25.22 -16.2 2.9 77 -19.3 -2.7
09:25 1025 30.27 854 25.22 -16.5 2.4 80 -19.1 -2.4
09:30 1025 30.27 854 25.22 -16.2 2.8 79 -19 -2.3
09:35 1025 30.27 854 25.22 -15.9 3.4 81 -18.5 -1.3
09:40 1025 30.27 854 25.22 -15.1 4.8 77 -18.2 -0.8
09:45 1025 30.27 854 25.22 -14.6 5.7 74 -18.3 -0.9
09:50 1025 30.27 854 25.22 -14.6 5.8 75 -18.1 -0.6
09:55 1025 30.27 854 25.22 -14.3 6.2 74 -18 -0.5
10:00 1025 30.27 854 25.22 -13.8 7.1 72 -17.8 -0.1
10:05 1025 30.27 854 25.22 -13.5 7.7 72 -17.5 0.5
10:10 1025 30.27 854 25.22 -13.4 7.8 71 -17.6 0.4
10:15 1025 30.27 854 25.22 -13.3 8 71 -17.5 0.5
10:20 1025 30.27 854 25.22 -12.7 9.2 69 -17.2 1.1
10:25 1025 30.27 854 25.22 -12.1 10.3 67 -17 1.5
10:30 1025 30.27 854 25.22 -11.7 11 67 -16.7 1.9
10:35 1025 30.27 854 25.22 -11.7 11 67 -16.7 1.9
10:40 1025 30.27 854 25.22 -11.5 11.3 66 -16.6 2.1
10:45 1025 30.27 854 25.22 -11.6 11.1 66 -16.7 2
10:50 1025 30.27 854 25.22 -11.1 12 63 -16.9 1.5
10:55 1025 30.27 854 25.22 -10.7 12.8 62 -16.7 1.9
11:00 1025 30.27 854 25.22 -10.8 12.5 63 -16.6 2.1
11:05 1025 30.27 854 25.22 -11.2 11.9 63 -16.9 1.6
11:10 1025 30.27 854 25.22 -11.2 11.8 62 -17.1 1.3
11:15 1025 30.27 854 25.22 -11 12.1 63 -16.8 1.7
11:20 1025 30.27 854 25.22 -11 12.1 65 -16.4 2.4
11:25 1025 30.27 854 25.22 -10.7 12.8 64 -16.3 2.7
11:30 1025 30.27 854 25.22 -10.3 13.6 61 -16.4 2.6
11:35 1025 30.27 854 25.22 -9.9 14.1 60 -16.4 2.5
11:40 1025 30.27 854 25.22 -9.9 14.1 60 -16.4 2.5
11:45 1025 30.27 854 25.22 -9.3 15.2 56 -16.5 2.3
11:50 1025 30.27 854 25.22 -9.2 15.4 58 -16 3.1
11:55 1025 30.27 854 25.22 -9.4 15 58 -16.3 2.6
12:00 1025 30.27 854 25.22 -9.8 14.5 59 -16.3 2.6
12:05 1025 30.27 854 25.22 -10.1 13.7 62 -16.1 3
12:10 1025 30.27 854 25.22 -10.3 13.4 61 -16.5 2.4
12:15 1025 30.27 854 25.22 -10.2 13.7 61 -16.3 2.6
12:20 1025 30.27 854 25.22 -10.2 13.6 60 -16.5 2.2
12:25 1025 30.27 854 25.22 -10.4 13.3 62 -16.4 2.4
12:30 1025 30.27 854 25.22 -10.4 13.3 62 -16.4 2.4
12:35 1025 30.27 854 25.22 -10.5 13.1 62 -16.4 2.5
12:40 1025 30.27 854 25.22 -10 14.1 60 -16.4 2.5
12:45 1025 30.27 854 25.22 -9.8 14.4 60 -16.2 2.9
12:50 1025 30.27 854 25.22 -9.5 14.9 59 -16.2 2.8
12:55 1024 30.24 854 25.22 -9.4 15 59 -16.1 3.1
13:00 1024 30.24 854 25.22 -9.5 15 59 -16.1 3
13:05 1024 30.24 854 25.22 -9.5 15 58 -16.3 2.7
13:10 1024 30.24 854 25.22 -9.2 15.4 58 -16.2 2.9
13:15 1024 30.24 853 25.19 -9.4 15.1 58 -16.2 2.9
13:20 1024 30.24 853 25.19 -9.3 15.3 58 -16.1 3
13:25 1024 30.24 853 25.19 -8.9 16 58 -15.8 3.6
13:30 1024 30.24 853 25.19 -8.9 15.9 56 -16.3 2.7
13:35 1024 30.24 853 25.19 -8.6 16.6 55 -16 3.1
13:40 1024 30.24 853 25.19 -8.5 16.6 56 -15.9 3.4
13:45 1024 30.24 853 25.19 -8.1 17.5 54 -15.9 3.3
13:50 1024 30.24 853 25.19 -8.2 17.2 53 -16.1 3
13:55 1024 30.24 853 25.19 -8.1 17.4 52 -16.4 2.5
14:00 1024 30.24 853 25.19 -8 17.6 52 -16.3 2.7
14:05 1024 30.24 853 25.19 -7.9 17.8 52 -16.1 3.1
14:10 1023 30.21 853 25.19 -7.9 17.8 52 -16.1 3.1
14:15 1023 30.21 853 25.19 -8 17.7 53 -15.9 3.4
14:20 1023 30.21 853 25.19 -7.9 17.8 53 -15.9 3.4
14:25 1023 30.21 853 25.19 -7.8 18 53 -15.7 3.8
14:30 1023 30.21 852 25.16 -7.5 18.6 51 -16 3.2
14:35 1023 30.21 852 25.16 -7 19.4 52 -15.4 4.3
14:40 1023 30.21 852 25.16 -6.9 19.6 50 -15.5 4
14:45 1023 30.21 852 25.16 -7.2 19.1 52 -15.5 4.1
14:50 1023 30.21 852 25.16 -7 19.3 52 -15.3 4.4
14:55 1023 30.21 852 25.16 -6.9 19.5 52 -15.3 4.5
15:00 1023 30.21 852 25.16 -7 19.5 53 -15.1 4.8
15:05 1023 30.21 852 25.16 -7.3 18.9 52 -15.5 4.1
15:10 1023 30.21 852 25.16 -7.5 18.4 54 -15.4 4.3
15:15 1023 30.21 852 25.16 -7.8 18 55 -15.4 4.3
15:20 1023 30.21 852 25.16 -7.6 18.4 54 -15.4 4.2
15:25 1023 30.21 852 25.16 -7.6 18.4 54 -15.3 4.4
15:30 1023 30.21 852 25.16 -7.7 18.2 54 -15.3 4.4
15:35 1023 30.21 852 25.16 -7.8 18 54 -15.5 4.1
15:40 1023 30.21 852 25.16 -7.7 18.1 54 -15.5 4.2
15:45 1023 30.21 852 25.16 -7.5 18.6 54 -15.3 4.4
15:50 1023 30.21 852 25.16 -7.4 18.6 53 -15.4 4.3
15:55 1023 30.21 852 25.16 -7.6 18.4 53 -15.5 4.1
16:00 1023 30.21 852 25.16 -7.5 18.4 54 -15.4 4.4
16:05 1023 30.21 852 25.16 -7.5 18.6 54 -15.3 4.4
16:10 1023 30.21 852 25.16 -7.4 18.8 54 -15.2 4.7
16:15 1023 30.21 852 25.16 -7.4 18.7 54 -15.2 4.6
16:20 1023 30.21 852 25.16 -7.5 18.5 54 -15.3 4.4
16:25 1023 30.21 852 25.16 -7.4 18.8 54 -15.3 4.5
16:30 1023 30.21 852 25.16 -7.5 18.5 54 -15.2 4.6
16:35 1023 30.21 852 25.16 -7.5 18.6 55 -15.1 4.8
16:40 1023 30.21 852 25.16 -7.2 19 52 -15.4 4.3
16:45 1023 30.21 852 25.16 -7.3 19 53 -15.2 4.6
16:50 1023 30.21 852 25.16 -7.6 18.4 54 -15.3 4.5
16:55 1023 30.21 852 25.16 -7.7 18.1 55 -15.3 4.5
17:00 1023 30.21 852 25.16 -7.6 18.4 54 -15.3 4.5
17:05 1023 30.21 852 25.16 -7.5 18.4 54 -15.3 4.5
17:10 1023 30.21 852 25.16 -7.9 17.8 58 -14.7 5.5
17:15 1023 30.21 852 25.16 -8.9 16 60 -15.3 4.5
17:20 1023 30.21 852 25.16 -8.9 16 60 -15.4 4.3
17:25 1023 30.21 852 25.16 -9 15.8 62 -15.1 4.8
17:30 1023 30.21 852 25.16 -9.8 14.3 65 -15.3 4.5
17:35 1023 30.21 852 25.16 -9.7 14.6 63 -15.4 4.3
17:40 1023 30.21 852 25.16 -9.5 14.9 64 -15.2 4.6
17:45 1023 30.21 852 25.16 -9.8 14.3 64 -15.3 4.4
17:50 1023 30.21 852 25.16 -10.4 13.3 67 -15.5 4.2
17:55 1023 30.21 852 25.16 -10.6 12.9 68 -15.5 4
18:00 1023 30.21 852 25.16 -10.5 13.1 66 -15.6 3.9
18:05 1023 30.21 852 25.16 -10.2 13.6 66 -15.5 4.2
18:10 1023 30.21 852 25.16 -10.5 13.2 68 -15.3 4.5
18:15 1023 30.21 852 25.16 -10.4 13.3 66 -15.6 4
18:20 1023 30.21 852 25.16 -10.4 13.2 68 -15.3 4.4
18:25 1023 30.21 852 25.16 -10.5 13.1 68 -15.4 4.3
18:30 1022 30.18 852 25.16 -10.9 12.4 69 -15.5 4.2
18:35 1022 30.18 852 25.16 -11.3 11.6 71 -15.6 4
18:40 1022 30.18 852 25.16 -11.7 11 73 -15.6 4
18:45 1022 30.18 852 25.16 -12 10.3 74 -15.8 3.5
18:50 1022 30.18 852 25.16 -12.2 10.1 75 -15.8 3.6
18:55 1022 30.18 852 25.16 -11.9 10.6 74 -15.7 3.7
19:00 1022 30.18 852 25.16 -11.8 10.8 73 -15.7 3.7
19:05 1022 30.18 852 25.16 -12 10.3 75 -15.7 3.8
19:10 1022 30.18 852 25.16 -12.1 10.3 74 -15.8 3.6
19:15 1022 30.18 852 25.16 -12.2 10 75 -15.9 3.5
19:20 1022 30.18 852 25.16 -12.3 9.8 75 -15.9 3.4
19:25 1022 30.18 852 25.16 -12.4 9.6 75 -16 3.3
19:30 1022 30.18 852 25.16 -12.4 9.8 75 -15.9 3.4
19:35 1022 30.18 852 25.16 -12 10.3 73 -15.9 3.4
19:40 1022 30.18 852 25.16 -12.1 10.2 73 -15.9 3.3
19:45 1022 30.18 852 25.16 -12.1 10.2 75 -15.7 3.8
19:50 1022 30.18 852 25.16 -12 10.5 74 -15.7 3.8
19:55 1022 30.18 851 25.13 -12.2 10.1 75 -15.8 3.6
20:00 1022 30.18 851 25.13 -12.3 10 75 -15.8 3.5
20:05 1022 30.18 852 25.16 -12.5 9.5 76 -15.9 3.4
20:10 1022 30.18 852 25.16 -12.5 9.5 76 -15.9 3.4
20:15 1022 30.18 852 25.16 -12.2 10.1 75 -15.7 3.7
20:20 1022 30.18 852 25.16 -12.2 10 75 -15.8 3.5
20:25 1022 30.18 851 25.13 -12.6 9.4 75 -16.2 2.8
20:30 1022 30.18 852 25.16 -13 8.5 76 -16.4 2.5
20:35 1022 30.18 852 25.16 -13 8.6 77 -16.2 2.8
20:40 1022 30.18 852 25.16 -12.7 9.2 77 -16 3.2
20:45 1022 30.18 852 25.16 -12.5 9.4 76 -15.9 3.4
20:50 1022 30.18 852 25.16 -12.6 9.3 76 -16 3.3
20:55 1022 30.18 852 25.16 -12.3 9.8 74 -16 3.2
21:00 1022 30.18 852 25.16 -12.3 9.8 74 -16.1 3.1
21:05 1022 30.18 852 25.16 -12.4 9.7 75 -15.9 3.3
21:10 1022 30.18 852 25.16 -12.3 9.9 75 -15.9 3.4
21:15 1022 30.18 852 25.16 -12.4 9.8 75 -15.9 3.3
21:20 1022 30.18 851 25.13 -12.8 8.9 76 -16.3 2.7
21:25 1022 30.18 851 25.13 -13 8.6 76 -16.4 2.5
21:30 1022 30.18 851 25.13 -13.1 8.4 77 -16.3 2.7
21:35 1022 30.18 851 25.13 -12.7 9.2 75 -16.3 2.7
21:40 1022 30.18 851 25.13 -12.6 9.4 75 -16.1 3
21:45 1022 30.18 851 25.13 -12.6 9.3 75 -16.2 2.9
21:50 1022 30.18 851 25.13 -12.4 9.8 74 -16.1 3.1
21:55 1022 30.18 851 25.13 -12.4 9.7 74 -16 3.1
22:00 1022 30.18 851 25.13 -12.5 9.6 75 -16.1 3
22:05 1022 30.18 851 25.13 -12.5 9.5 75 -16.1 3
22:10 1022 30.18 851 25.13 -12.6 9.3 75 -16.2 2.8
22:15 1022 30.18 851 25.13 -12.8 8.9 75 -16.3 2.7
22:20 1022 30.18 851 25.13 -12.9 8.7 75 -16.5 2.2
22:25 1022 30.18 851 25.13 -13 8.7 76 -16.4 2.5
22:30 1022 30.18 851 25.13 -13.1 8.5 77 -16.3 2.6
22:35 1022 30.18 851 25.13 -12.8 9 76 -16.2 2.8
22:40 1022 30.18 851 25.13 -12.2 10.1 72 -16.2 2.8
22:45 1022 30.18 851 25.13 -12 10.4 70 -16.5 2.4
22:50 1022 30.18 851 25.13 -12.4 9.7 71 -16.7 2
22:55 1022 30.18 851 25.13 -12.8 9 73 -16.7 2
23:00 1022 30.18 851 25.13 -12.3 9.9 71 -16.6 2.2
23:05 1022 30.18 851 25.13 -12.4 9.6 70 -16.9 1.6
23:10 1022 30.18 851 25.13 -12.6 9.3 72 -16.7 2
23:15 1022 30.18 851 25.13 -12.3 9.8 71 -16.6 2.1
23:20 1022 30.18 851 25.13 -12.2 10.1 70 -16.6 2.2
23:25 1022 30.18 852 25.16 -12.1 10.2 70 -16.6 2.1
23:30 1022 30.18 852 25.16 -12.4 9.6 70 -16.8 1.7
23:35 1022 30.18 852 25.16 -12.8 9 71 -17 1.3
23:40 1022 30.18 852 25.16 -13.1 8.5 73 -17 1.4
23:45 1022 30.18 852 25.16 -13.1 8.3 73 -17 1.3
23:50 1022 30.18 851 25.13 -12.9 8.8 72 -16.9 1.6
23:55 1022 30.18 852 25.16 -12.8 9 72 -16.8 1.7
24:00 1022 30.18 852 25.16 -12.9 8.7 75 -16.5 2.2